Terminal Aerodrome Forecast
Issued by NWS Amarillo, TX

Home | Current Version | Previous Version | Text Only | Print | Product List | Glossary On
Versions: 1 2 3 4 5 6 7 8 9 10 11 12 13 14 15 16
511
FTUS44 KAMA 202320
TAFDHT
TAF
KDHT 202320Z 2100/2124 VRB05KT P6SM SKC
     FM211200 22012KT P6SM SKC
     FM211700 22020G28KT P6SM SKC=

USA.gov is the U.S. government's official web portal to all federal, state and local government web resources and services.